createdAt,value
2023-09-22T00:01:48.071Z,15.00
2023-09-22T00:08:48.260Z,15.00
2023-09-22T00:15:49.030Z,15.00
2023-09-22T00:22:49.740Z,15.00
2023-09-22T00:29:50.457Z,15.00
2023-09-22T00:36:53.775Z,14.90
2023-09-22T00:43:54.588Z,14.80
2023-09-22T00:50:57.386Z,14.70
2023-09-22T00:57:59.962Z,14.60
2023-09-22T01:05:00.975Z,14.50
2023-09-22T01:12:01.651Z,14.30
2023-09-22T01:19:02.267Z,14.20
2023-09-22T01:26:02.750Z,14.10
2023-09-22T01:33:04.527Z,14.00
2023-09-22T01:40:06.720Z,13.90
2023-09-22T01:47:07.377Z,13.80
2023-09-22T01:54:07.818Z,13.80
2023-09-22T02:01:08.108Z,13.70
2023-09-22T02:08:09.504Z,13.70
2023-09-22T02:15:10.620Z,13.60
2023-09-22T02:22:11.006Z,13.50
2023-09-22T02:29:11.534Z,13.40
2023-09-22T02:36:11.948Z,13.40
2023-09-22T02:43:12.663Z,13.30
2023-09-22T02:50:19.220Z,13.20
2023-09-22T02:57:19.471Z,13.10
2023-09-22T03:04:20.030Z,13.10
2023-09-22T03:11:21.983Z,13.00
2023-09-22T03:18:22.374Z,13.00
2023-09-22T03:25:23.914Z,12.90
2023-09-22T03:32:24.949Z,12.90
2023-09-22T03:39:27.231Z,12.80
2023-09-22T03:46:27.939Z,12.80
2023-09-22T03:53:28.521Z,12.80
2023-09-22T04:00:29.782Z,12.80
2023-09-22T04:07:32.230Z,12.80
2023-09-22T04:14:32.705Z,12.80
2023-09-22T04:21:33.442Z,12.80
2023-09-22T04:28:33.920Z,12.80
2023-09-22T04:35:34.677Z,12.80
2023-09-22T04:42:35.375Z,12.80
2023-09-22T04:49:35.894Z,12.90
2023-09-22T04:56:36.310Z,12.90
2023-09-22T05:03:37.085Z,13.00
2023-09-22T05:10:37.665Z,13.10
2023-09-22T05:17:38.508Z,13.10
2023-09-22T05:24:39.007Z,13.10
2023-09-22T05:31:39.623Z,13.10
2023-09-22T05:38:40.013Z,13.10
2023-09-22T05:45:42.140Z,13.10
2023-09-22T05:52:44.021Z,13.00
2023-09-22T05:59:44.971Z,13.00
2023-09-22T06:06:47.058Z,13.00
2023-09-22T06:13:47.503Z,13.00
2023-09-22T06:20:47.945Z,13.00
2023-09-22T06:27:50.964Z,13.00
2023-09-22T06:34:54.273Z,13.00
2023-09-22T06:41:55.342Z,13.00
2023-09-22T06:48:57.156Z,13.00
2023-09-22T06:56:10.112Z,13.00
2023-09-22T07:03:11.291Z,13.10
2023-09-22T07:10:11.685Z,13.20
2023-09-22T07:17:12.268Z,13.40
2023-09-22T07:24:12.767Z,13.50
2023-09-22T07:31:14.633Z,13.50
2023-09-22T07:38:16.216Z,13.70
2023-09-22T07:45:16.524Z,13.80
2023-09-22T07:52:17.189Z,13.90
2023-09-22T07:59:18.375Z,14.00
2023-09-22T08:06:19.191Z,14.20
2023-09-22T08:13:22.613Z,14.40
2023-09-22T08:20:23.124Z,14.50
2023-09-22T08:27:23.701Z,14.70
2023-09-22T08:34:24.549Z,14.90
2023-09-22T08:41:27.658Z,15.10
2023-09-22T08:48:28.929Z,15.40
2023-09-22T08:55:30.242Z,15.60
2023-09-22T09:02:30.816Z,15.90
2023-09-22T09:09:42.108Z,16.10
2023-09-22T09:16:42.398Z,16.30
2023-09-22T09:23:57.397Z,16.30
2023-09-22T09:30:59.848Z,16.40
2023-09-22T09:38:04.602Z,16.50
2023-09-22T09:45:05.847Z,16.50
2023-09-22T09:52:10.670Z,16.60
2023-09-22T09:59:12.778Z,16.70
2023-09-22T10:06:14.733Z,16.80
2023-09-22T10:13:15.463Z,17.00
2023-09-22T10:20:35.555Z,17.10
2023-09-22T10:35:10.459Z,17.10
2023-09-22T10:42:11.079Z,17.10
2023-09-22T10:49:27.583Z,17.10
2023-09-22T10:56:29.137Z,17.10
2023-09-22T11:03:29.769Z,17.20
2023-09-22T11:10:30.367Z,17.30
2023-09-22T11:17:43.117Z,17.40
2023-09-22T11:24:45.351Z,17.40
2023-09-22T11:31:51.406Z,17.50
2023-09-22T11:38:56.212Z,17.80
2023-09-22T11:46:12.814Z,18.00
2023-09-22T11:53:19.744Z,18.40
2023-09-22T12:00:21.554Z,18.60
2023-09-22T12:07:22.130Z,18.70
2023-09-22T12:14:24.080Z,18.90
2023-09-22T12:21:26.819Z,19.00
2023-09-22T12:28:27.403Z,19.30
2023-09-22T12:35:29.519Z,19.40
2023-09-22T12:42:30.076Z,19.30
2023-09-22T12:49:30.362Z,19.60
2023-09-22T12:56:30.903Z,20.30
2023-09-22T13:03:32.820Z,20.70
2023-09-22T13:10:33.402Z,21.10
2023-09-22T13:17:35.780Z,21.40
2023-09-22T13:24:36.104Z,21.70
2023-09-22T13:31:36.795Z,21.90
2023-09-22T13:38:37.176Z,21.50
2023-09-22T13:45:39.184Z,21.20
2023-09-22T13:52:40.018Z,20.80
2023-09-22T13:59:40.475Z,20.50
2023-09-22T14:06:41.048Z,20.30
2023-09-22T14:13:42.077Z,20.10
2023-09-22T14:20:43.131Z,20.00
2023-09-22T14:27:43.562Z,20.00
2023-09-22T14:34:43.767Z,19.90
2023-09-22T14:41:44.270Z,20.00
2023-09-22T14:48:45.866Z,20.00
2023-09-22T14:55:46.642Z,19.90
2023-09-22T15:02:47.668Z,19.70
2023-09-22T15:09:48.078Z,19.50
2023-09-22T15:16:48.571Z,19.20
2023-09-22T15:23:49.204Z,19.10
2023-09-22T15:30:49.715Z,18.70
2023-09-22T15:37:53.137Z,18.50
2023-09-22T15:44:53.710Z,17.70
2023-09-22T15:51:55.141Z,16.00
2023-09-22T15:58:55.539Z,15.20
2023-09-22T16:05:56.107Z,14.90
2023-09-22T16:12:56.611Z,14.70
2023-09-22T16:19:57.044Z,14.80
2023-09-22T16:26:57.462Z,14.80
2023-09-22T16:33:57.849Z,14.90
2023-09-22T16:40:58.449Z,14.90
2023-09-22T16:48:00.648Z,14.90
2023-09-22T16:55:02.033Z,15.00
2023-09-22T17:02:03.869Z,14.90
2023-09-22T17:09:06.135Z,15.00
2023-09-22T17:16:06.985Z,15.00
2023-09-22T17:23:07.724Z,15.00
2023-09-22T17:30:09.377Z,15.00
2023-09-22T17:37:10.260Z,14.90
2023-09-22T17:44:10.836Z,14.80
2023-09-22T17:51:11.167Z,14.80
2023-09-22T17:58:11.659Z,14.70
2023-09-22T18:05:12.307Z,14.60
2023-09-22T18:12:12.844Z,14.50
2023-09-22T18:19:13.500Z,14.40
2023-09-22T18:26:13.982Z,14.30
2023-09-22T18:33:14.510Z,14.30
2023-09-22T18:40:16.194Z,14.20
2023-09-22T18:47:17.677Z,14.10
2023-09-22T18:54:17.860Z,14.00
2023-09-22T19:01:19.180Z,14.00
2023-09-22T19:08:19.538Z,13.90
2023-09-22T19:15:20.159Z,13.90
2023-09-22T19:22:20.683Z,13.80
2023-09-22T19:29:21.940Z,13.80
2023-09-22T19:36:22.591Z,13.80
2023-09-22T19:43:23.374Z,13.80
2023-09-22T19:50:23.802Z,13.80
2023-09-22T19:57:24.230Z,13.90
2023-09-22T20:04:24.806Z,13.80
2023-09-22T20:11:26.126Z,13.90
2023-09-22T20:18:26.852Z,13.90
2023-09-22T20:25:27.505Z,13.70
2023-09-22T20:32:28.050Z,13.70
2023-09-22T20:39:30.201Z,13.60
2023-09-22T20:46:30.612Z,13.60
2023-09-22T20:53:32.900Z,13.50
2023-09-22T21:00:35.000Z,13.40
2023-09-22T21:07:35.504Z,13.40
2023-09-22T21:14:36.127Z,13.30
2023-09-22T21:21:36.805Z,13.30
2023-09-22T21:28:38.660Z,13.20
2023-09-22T21:35:39.529Z,13.20
2023-09-22T21:42:40.121Z,13.10
2023-09-22T21:49:41.128Z,13.00
2023-09-22T21:56:41.600Z,13.00
2023-09-22T22:03:44.192Z,13.00
2023-09-22T22:10:49.849Z,12.90
2023-09-22T22:17:50.566Z,12.90
2023-09-22T22:24:51.229Z,12.90
2023-09-22T22:31:51.722Z,12.90
2023-09-22T22:38:52.110Z,12.80
2023-09-22T22:45:54.407Z,12.70
2023-09-22T22:52:54.916Z,12.50
2023-09-22T22:59:55.573Z,12.40
2023-09-22T23:06:55.984Z,12.30
2023-09-22T23:14:00.245Z,12.20
2023-09-22T23:21:01.145Z,12.20
2023-09-22T23:28:08.100Z,12.20
2023-09-22T23:35:09.219Z,12.20
2023-09-22T23:42:10.071Z,12.20
2023-09-22T23:49:11.133Z,12.30
2023-09-22T23:56:11.802Z,12.30
